Terminal Aerodrome Forecast
Issued by NWS Denver/Boulder, CO

Home | Current Version | Previous Version | Text Only | Print | Product List | Glossary On
Versions: 1 2 3 4 5 6 7 8 9 10 11 12 13 14 15 16 17 18 19 20 21 22 23 24 25 26 27 28 29 30 31 32 33 34 35 36 37 38 39 40 41 42 43 44 45 46 47 48 49 50
323
FTUS45 KBOU 241344 AAB
TAFDEN
TAF AMD
KDEN 241344Z 2414/2518 34025G35KT P6SM VCSH OVC017
     FM241500 34025G32KT P6SM SCT020 OVC030
     FM241700 36014KT P6SM SCT025 BKN060
     FM242100 09008KT P6SM FEW040 SCT100
     FM250200 18007KT P6SM FEW100
     FM250500 20008KT P6SM FEW250
     FM251500 15008KT P6SM SCT250=

USA.gov is the U.S. government's official web portal to all federal, state and local government web resources and services.